sensor_id;sensor_type;location;lat;lon;timestamp;P1;durP1;ratioP1;P2;durP2;ratioP2
72575;SDS011;60613;48.658;2.328;2023-03-01T08:28:36;8.57;;;3.97;;
72575;SDS011;60613;48.658;2.328;2023-03-01T08:31:02;7.70;;;3.58;;
72575;SDS011;60613;48.658;2.328;2023-03-01T08:33:37;7.87;;;3.67;;
72575;SDS011;60613;48.658;2.328;2023-03-01T08:36:03;8.43;;;3.80;;
72575;SDS011;60613;48.658;2.328;2023-03-01T08:38:32;15.93;;;4.00;;
72575;SDS011;60613;48.658;2.328;2023-03-01T08:41:01;7.63;;;3.77;;
72575;SDS011;60613;48.658;2.328;2023-03-01T08:43:28;7.88;;;3.53;;
72575;SDS011;60613;48.658;2.328;2023-03-01T08:45:54;8.93;;;3.65;;
72575;SDS011;60613;48.658;2.328;2023-03-01T08:48:19;7.20;;;3.30;;
72575;SDS011;60613;48.658;2.328;2023-03-01T08:50:45;10.02;;;3.50;;
72575;SDS011;60613;48.658;2.328;2023-03-01T08:53:11;6.70;;;3.30;;
72575;SDS011;60613;48.658;2.328;2023-03-01T08:55:36;8.23;;;3.63;;
72575;SDS011;60613;48.658;2.328;2023-03-01T08:58:02;6.73;;;3.30;;
72575;SDS011;60613;48.658;2.328;2023-03-01T09:00:27;7.43;;;3.53;;
72575;SDS011;60613;48.658;2.328;2023-03-01T09:02:53;7.50;;;3.43;;
72575;SDS011;60613;48.658;2.328;2023-03-01T09:05:18;8.33;;;3.57;;
72575;SDS011;60613;48.658;2.328;2023-03-01T09:07:44;7.53;;;3.20;;
72575;SDS011;60613;48.658;2.328;2023-03-01T09:10:10;7.57;;;3.80;;
72575;SDS011;60613;48.658;2.328;2023-03-01T09:12:35;8.13;;;3.22;;
72575;SDS011;60613;48.658;2.328;2023-03-01T09:15:01;6.53;;;3.27;;
72575;SDS011;60613;48.658;2.328;2023-03-01T09:17:27;8.10;;;3.38;;
72575;SDS011;60613;48.658;2.328;2023-03-01T09:19:52;6.33;;;3.27;;
72575;SDS011;60613;48.658;2.328;2023-03-01T09:22:18;6.25;;;2.92;;
72575;SDS011;60613;48.658;2.328;2023-03-01T09:24:43;6.67;;;3.30;;
72575;SDS011;60613;48.658;2.328;2023-03-01T09:27:09;6.93;;;3.30;;
72575;SDS011;60613;48.658;2.328;2023-03-01T09:29:36;6.97;;;3.10;;
72575;SDS011;60613;48.658;2.328;2023-03-01T09:32:02;7.07;;;3.17;;
72575;SDS011;60613;48.658;2.328;2023-03-01T09:34:27;6.93;;;3.20;;
72575;SDS011;60613;48.658;2.328;2023-03-01T09:36:53;7.90;;;3.30;;
72575;SDS011;60613;48.658;2.328;2023-03-01T09:39:19;7.57;;;3.47;;
72575;SDS011;60613;48.658;2.328;2023-03-01T09:41:49;6.77;;;3.07;;
72575;SDS011;60613;48.658;2.328;2023-03-01T09:44:36;7.07;;;3.22;;
72575;SDS011;60613;48.658;2.328;2023-03-01T09:47:22;7.43;;;3.20;;
72575;SDS011;60613;48.658;2.328;2023-03-01T09:49:54;6.88;;;3.10;;
72575;SDS011;60613;48.658;2.328;2023-03-01T09:55:04;7.77;;;3.20;;
72575;SDS011;60613;48.658;2.328;2023-03-01T09:57:55;6.50;;;3.00;;
72575;SDS011;60613;48.658;2.328;2023-03-01T10:00:31;6.13;;;2.88;;
72575;SDS011;60613;48.658;2.328;2023-03-01T10:10:54;6.55;;;3.10;;
72575;SDS011;60613;48.658;2.328;2023-03-01T10:13:33;7.13;;;2.90;;
72575;SDS011;60613;48.658;2.328;2023-03-01T10:16:13;6.20;;;3.00;;
72575;SDS011;60613;48.658;2.328;2023-03-01T10:18:42;6.00;;;2.90;;
72575;SDS011;60613;48.658;2.328;2023-03-01T10:21:18;7.38;;;3.00;;
72575;SDS011;60613;48.658;2.328;2023-03-01T10:23:44;6.68;;;2.90;;
72575;SDS011;60613;48.658;2.328;2023-03-01T10:32:11;5.95;;;2.70;;
72575;SDS011;60613;48.658;2.328;2023-03-01T10:34:20;6.25;;;2.88;;
72575;SDS011;60613;48.658;2.328;2023-03-01T10:36:55;7.10;;;2.95;;
72575;SDS011;60613;48.658;2.328;2023-03-01T10:39:23;6.47;;;3.03;;
72575;SDS011;60613;48.658;2.328;2023-03-01T10:41:54;5.80;;;2.70;;
72575;SDS011;60613;48.658;2.328;2023-03-01T10:47:18;6.53;;;2.65;;
72575;SDS011;60613;48.658;2.328;2023-03-01T10:50:02;7.85;;;2.90;;
72575;SDS011;60613;48.658;2.328;2023-03-01T10:52:34;7.07;;;2.95;;
72575;SDS011;60613;48.658;2.328;2023-03-01T10:55:03;6.60;;;3.00;;
72575;SDS011;60613;48.658;2.328;2023-03-01T10:57:38;8.32;;;2.92;;
72575;SDS011;60613;48.658;2.328;2023-03-01T11:02:46;6.78;;;2.90;;
72575;SDS011;60613;48.658;2.328;2023-03-01T11:05:17;7.72;;;2.75;;
72575;SDS011;60613;48.658;2.328;2023-03-01T11:07:49;6.87;;;2.60;;
72575;SDS011;60613;48.658;2.328;2023-03-01T11:10:26;7.50;;;2.50;;
72575;SDS011;60613;48.658;2.328;2023-03-01T11:13:04;7.70;;;2.88;;
72575;SDS011;60613;48.658;2.328;2023-03-01T11:16:01;7.43;;;2.60;;
72575;SDS011;60613;48.658;2.328;2023-03-01T11:18:30;7.85;;;2.70;;
72575;SDS011;60613;48.658;2.328;2023-03-01T11:20:56;9.47;;;2.80;;
72575;SDS011;60613;48.658;2.328;2023-03-01T11:23:25;6.38;;;2.60;;
72575;SDS011;60613;48.658;2.328;2023-03-01T11:25:54;6.82;;;2.50;;
72575;SDS011;60613;48.658;2.328;2023-03-01T11:28:21;6.35;;;2.60;;
72575;SDS011;60613;48.658;2.328;2023-03-01T11:30:58;6.50;;;2.70;;
72575;SDS011;60613;48.658;2.328;2023-03-01T11:36:15;7.10;;;2.58;;
72575;SDS011;60613;48.658;2.328;2023-03-01T11:38:51;5.82;;;2.55;;
72575;SDS011;60613;48.658;2.328;2023-03-01T11:41:23;6.38;;;2.58;;
72575;SDS011;60613;48.658;2.328;2023-03-01T11:43:57;6.68;;;2.50;;
72575;SDS011;60613;48.658;2.328;2023-03-01T11:59:45;7.37;;;2.53;;
72575;SDS011;60613;48.658;2.328;2023-03-01T12:05:13;7.15;;;2.70;;
72575;SDS011;60613;48.658;2.328;2023-03-01T12:08:04;6.53;;;2.45;;
72575;SDS011;60613;48.658;2.328;2023-03-01T12:10:49;6.85;;;2.58;;
72575;SDS011;60613;48.658;2.328;2023-03-01T12:16:12;6.97;;;2.40;;
72575;SDS011;60613;48.658;2.328;2023-03-01T12:21:58;6.20;;;2.80;;
72575;SDS011;60613;48.658;2.328;2023-03-01T12:27:04;6.60;;;2.50;;
72575;SDS011;60613;48.658;2.328;2023-03-01T12:32:59;6.45;;;2.80;;
72575;SDS011;60613;48.658;2.328;2023-03-01T12:38:41;5.40;;;2.38;;
72575;SDS011;60613;48.658;2.328;2023-03-01T12:44:02;6.10;;;2.50;;
72575;SDS011;60613;48.658;2.328;2023-03-01T12:49:12;5.50;;;2.20;;
72575;SDS011;60613;48.658;2.328;2023-03-01T12:51:53;6.50;;;2.30;;
72575;SDS011;60613;48.658;2.328;2023-03-01T12:54:29;5.85;;;2.35;;
72575;SDS011;60613;48.658;2.328;2023-03-01T12:56:57;6.63;;;2.47;;
72575;SDS011;60613;48.658;2.328;2023-03-01T13:09:59;5.70;;;2.43;;
72575;SDS011;60613;48.658;2.328;2023-03-01T13:17:54;6.13;;;2.47;;
72575;SDS011;60613;48.658;2.328;2023-03-01T13:20:29;6.32;;;2.80;;
72575;SDS011;60613;48.658;2.328;2023-03-01T13:33:57;8.05;;;2.70;;
72575;SDS011;60613;48.658;2.328;2023-03-01T13:39:13;5.50;;;2.38;;
72575;SDS011;60613;48.658;2.328;2023-03-01T13:42:25;5.72;;;2.55;;
72575;SDS011;60613;48.658;2.328;2023-03-01T13:45:01;5.70;;;2.40;;
72575;SDS011;60613;48.658;2.328;2023-03-01T13:47:29;5.70;;;2.40;;
72575;SDS011;60613;48.658;2.328;2023-03-01T13:50:04;6.03;;;2.40;;
72575;SDS011;60613;48.658;2.328;2023-03-01T13:55:23;6.20;;;2.53;;
72575;SDS011;60613;48.658;2.328;2023-03-01T13:58:31;6.22;;;2.70;;
72575;SDS011;60613;48.658;2.328;2023-03-01T14:01:18;7.20;;;2.60;;
72575;SDS011;60613;48.658;2.328;2023-03-01T14:03:50;7.03;;;2.63;;
72575;SDS011;60613;48.658;2.328;2023-03-01T14:06:16;6.32;;;2.50;;
72575;SDS011;60613;48.658;2.328;2023-03-01T14:08:46;6.28;;;2.60;;
72575;SDS011;60613;48.658;2.328;2023-03-01T14:19:35;6.38;;;2.70;;
72575;SDS011;60613;48.658;2.328;2023-03-01T14:22:10;5.78;;;2.58;;
72575;SDS011;60613;48.658;2.328;2023-03-01T14:24:53;6.23;;;2.57;;
72575;SDS011;60613;48.658;2.328;2023-03-01T14:27:20;6.05;;;2.63;;
72575;SDS011;60613;48.658;2.328;2023-03-01T14:29:56;5.65;;;2.40;;
72575;SDS011;60613;48.658;2.328;2023-03-01T14:32:28;6.95;;;2.72;;
72575;SDS011;60613;48.658;2.328;2023-03-01T14:34:56;6.90;;;2.47;;
72575;SDS011;60613;48.658;2.328;2023-03-01T14:37:27;6.63;;;2.70;;
72575;SDS011;60613;48.658;2.328;2023-03-01T14:39:59;6.03;;;2.30;;
72575;SDS011;60613;48.658;2.328;2023-03-01T14:42:28;5.38;;;2.38;;
72575;SDS011;60613;48.658;2.328;2023-03-01T14:44:58;7.15;;;2.67;;
72575;SDS011;60613;48.658;2.328;2023-03-01T14:47:31;6.32;;;2.65;;
72575;SDS011;60613;48.658;2.328;2023-03-01T14:50:00;6.80;;;2.63;;
72575;SDS011;60613;48.658;2.328;2023-03-01T14:52:34;5.63;;;2.22;;
72575;SDS011;60613;48.658;2.328;2023-03-01T14:55:03;6.53;;;2.50;;
72575;SDS011;60613;48.658;2.328;2023-03-01T14:57:42;7.10;;;2.40;;
72575;SDS011;60613;48.658;2.328;2023-03-01T15:00:10;5.78;;;2.53;;
72575;SDS011;60613;48.658;2.328;2023-03-01T15:02:47;5.87;;;2.70;;
72575;SDS011;60613;48.658;2.328;2023-03-01T15:05:14;5.85;;;2.40;;
72575;SDS011;60613;48.658;2.328;2023-03-01T15:07:43;5.80;;;2.47;;
72575;SDS011;60613;48.658;2.328;2023-03-01T15:10:23;6.68;;;2.50;;
72575;SDS011;60613;48.658;2.328;2023-03-01T15:12:51;6.22;;;2.70;;
72575;SDS011;60613;48.658;2.328;2023-03-01T15:17:48;5.90;;;2.58;;
72575;SDS011;60613;48.658;2.328;2023-03-01T15:20:20;7.43;;;2.90;;
72575;SDS011;60613;48.658;2.328;2023-03-01T15:22:50;5.72;;;2.63;;
72575;SDS011;60613;48.658;2.328;2023-03-01T15:25:21;5.75;;;2.58;;
72575;SDS011;60613;48.658;2.328;2023-03-01T15:27:50;5.63;;;2.23;;
72575;SDS011;60613;48.658;2.328;2023-03-01T15:30:21;6.35;;;2.50;;
72575;SDS011;60613;48.658;2.328;2023-03-01T15:33:15;5.65;;;2.30;;
72575;SDS011;60613;48.658;2.328;2023-03-01T15:35:50;5.93;;;2.80;;
72575;SDS011;60613;48.658;2.328;2023-03-01T15:40:53;6.23;;;2.70;;
72575;SDS011;60613;48.658;2.328;2023-03-01T15:46:18;6.55;;;2.38;;
72575;SDS011;60613;48.658;2.328;2023-03-01T15:48:47;6.10;;;2.50;;
72575;SDS011;60613;48.658;2.328;2023-03-01T15:51:17;6.60;;;2.78;;
72575;SDS011;60613;48.658;2.328;2023-03-01T15:53:49;6.50;;;2.50;;
72575;SDS011;60613;48.658;2.328;2023-03-01T15:56:17;5.63;;;2.45;;
72575;SDS011;60613;48.658;2.328;2023-03-01T15:58:43;5.70;;;2.60;;
72575;SDS011;60613;48.658;2.328;2023-03-01T16:01:13;5.90;;;2.60;;
72575;SDS011;60613;48.658;2.328;2023-03-01T16:03:41;6.47;;;2.63;;
72575;SDS011;60613;48.658;2.328;2023-03-01T16:06:08;6.28;;;2.70;;
72575;SDS011;60613;48.658;2.328;2023-03-01T16:08:35;6.22;;;2.60;;
72575;SDS011;60613;48.658;2.328;2023-03-01T16:11:02;6.27;;;2.40;;
72575;SDS011;60613;48.658;2.328;2023-03-01T16:13:30;6.55;;;2.75;;
72575;SDS011;60613;48.658;2.328;2023-03-01T16:15:57;5.18;;;2.40;;
72575;SDS011;60613;48.658;2.328;2023-03-01T16:18:24;6.57;;;2.50;;
72575;SDS011;60613;48.658;2.328;2023-03-01T16:20:49;6.20;;;2.43;;
72575;SDS011;60613;48.658;2.328;2023-03-01T16:23:15;6.57;;;2.65;;
72575;SDS011;60613;48.658;2.328;2023-03-01T16:25:40;6.30;;;2.60;;
72575;SDS011;60613;48.658;2.328;2023-03-01T16:28:06;6.77;;;2.60;;
72575;SDS011;60613;48.658;2.328;2023-03-01T16:30:35;5.97;;;2.50;;
72575;SDS011;60613;48.658;2.328;2023-03-01T16:33:04;5.82;;;2.55;;
72575;SDS011;60613;48.658;2.328;2023-03-01T16:35:33;6.25;;;2.40;;
72575;SDS011;60613;48.658;2.328;2023-03-01T16:38:03;5.75;;;2.50;;
72575;SDS011;60613;48.658;2.328;2023-03-01T16:40:29;6.40;;;2.67;;
72575;SDS011;60613;48.658;2.328;2023-03-01T16:42:55;5.83;;;2.40;;
72575;SDS011;60613;48.658;2.328;2023-03-01T16:45:27;5.82;;;2.47;;
72575;SDS011;60613;48.658;2.328;2023-03-01T16:47:57;6.18;;;2.50;;
72575;SDS011;60613;48.658;2.328;2023-03-01T16:50:23;6.03;;;2.58;;
72575;SDS011;60613;48.658;2.328;2023-03-01T16:52:49;6.90;;;2.50;;
72575;SDS011;60613;48.658;2.328;2023-03-01T16:55:15;6.50;;;2.60;;
72575;SDS011;60613;48.658;2.328;2023-03-01T16:57:41;6.40;;;2.65;;
72575;SDS011;60613;48.658;2.328;2023-03-01T17:00:08;6.40;;;2.63;;
72575;SDS011;60613;48.658;2.328;2023-03-01T17:02:37;6.32;;;2.50;;
72575;SDS011;60613;48.658;2.328;2023-03-01T17:05:04;8.03;;;2.90;;
72575;SDS011;60613;48.658;2.328;2023-03-01T17:07:30;5.95;;;2.55;;
72575;SDS011;60613;48.658;2.328;2023-03-01T17:10:01;7.30;;;2.85;;
72575;SDS011;60613;48.658;2.328;2023-03-01T17:12:28;5.90;;;2.63;;
72575;SDS011;60613;48.658;2.328;2023-03-01T17:14:53;5.67;;;2.50;;
72575;SDS011;60613;48.658;2.328;2023-03-01T17:17:19;5.75;;;2.40;;
72575;SDS011;60613;48.658;2.328;2023-03-01T17:19:45;6.03;;;2.60;;
72575;SDS011;60613;48.658;2.328;2023-03-01T17:22:11;6.13;;;2.50;;
72575;SDS011;60613;48.658;2.328;2023-03-01T17:24:38;5.95;;;2.63;;
72575;SDS011;60613;48.658;2.328;2023-03-01T17:27:05;5.63;;;2.60;;
72575;SDS011;60613;48.658;2.328;2023-03-01T17:29:32;6.30;;;2.57;;
72575;SDS011;60613;48.658;2.328;2023-03-01T17:31:58;5.82;;;2.55;;
72575;SDS011;60613;48.658;2.328;2023-03-01T17:34:24;6.90;;;2.88;;
72575;SDS011;60613;48.658;2.328;2023-03-01T17:36:50;5.85;;;2.60;;
72575;SDS011;60613;48.658;2.328;2023-03-01T17:39:16;5.57;;;2.67;;
72575;SDS011;60613;48.658;2.328;2023-03-01T17:41:45;6.10;;;2.60;;
72575;SDS011;60613;48.658;2.328;2023-03-01T17:44:11;6.13;;;2.63;;
72575;SDS011;60613;48.658;2.328;2023-03-01T17:46:36;6.53;;;2.50;;
72575;SDS011;60613;48.658;2.328;2023-03-01T17:49:02;6.10;;;2.65;;
72575;SDS011;60613;48.658;2.328;2023-03-01T17:51:28;6.00;;;2.80;;
72575;SDS011;60613;48.658;2.328;2023-03-01T17:53:54;6.80;;;2.80;;
72575;SDS011;60613;48.658;2.328;2023-03-01T17:56:19;6.50;;;2.90;;
72575;SDS011;60613;48.658;2.328;2023-03-01T17:58:45;6.20;;;2.72;;
72575;SDS011;60613;48.658;2.328;2023-03-01T18:01:12;7.10;;;2.73;;
72575;SDS011;60613;48.658;2.328;2023-03-01T18:03:39;7.10;;;2.67;;
72575;SDS011;60613;48.658;2.328;2023-03-01T18:06:18;5.93;;;2.63;;
72575;SDS011;60613;48.658;2.328;2023-03-01T18:08:46;6.20;;;2.80;;
72575;SDS011;60613;48.658;2.328;2023-03-01T18:11:12;6.70;;;2.87;;
72575;SDS011;60613;48.658;2.328;2023-03-01T18:13:39;6.45;;;3.10;;
72575;SDS011;60613;48.658;2.328;2023-03-01T18:16:05;7.20;;;2.90;;
72575;SDS011;60613;48.658;2.328;2023-03-01T18:18:33;7.13;;;3.25;;
72575;SDS011;60613;48.658;2.328;2023-03-01T18:20:59;10.60;;;4.40;;
72575;SDS011;60613;48.658;2.328;2023-03-01T18:23:25;7.97;;;4.50;;
72575;SDS011;60613;48.658;2.328;2023-03-01T18:25:56;8.15;;;4.50;;
72575;SDS011;60613;48.658;2.328;2023-03-01T18:28:23;8.00;;;4.55;;
72575;SDS011;60613;48.658;2.328;2023-03-01T18:30:54;8.77;;;4.60;;
72575;SDS011;60613;48.658;2.328;2023-03-01T18:33:32;8.77;;;4.40;;
72575;SDS011;60613;48.658;2.328;2023-03-01T18:35:59;8.15;;;4.38;;
72575;SDS011;60613;48.658;2.328;2023-03-01T18:38:25;9.02;;;4.82;;
72575;SDS011;60613;48.658;2.328;2023-03-01T18:40:52;8.65;;;4.63;;
72575;SDS011;60613;48.658;2.328;2023-03-01T18:43:19;8.48;;;4.72;;
72575;SDS011;60613;48.658;2.328;2023-03-01T18:45:45;8.37;;;4.30;;
72575;SDS011;60613;48.658;2.328;2023-03-01T18:48:11;9.02;;;4.65;;
72575;SDS011;60613;48.658;2.328;2023-03-01T18:50:41;10.05;;;5.93;;
72575;SDS011;60613;48.658;2.328;2023-03-01T18:53:07;11.27;;;6.20;;
72575;SDS011;60613;48.658;2.328;2023-03-01T18:55:36;12.77;;;6.83;;
72575;SDS011;60613;48.658;2.328;2023-03-01T18:58:03;12.13;;;7.90;;
72575;SDS011;60613;48.658;2.328;2023-03-01T19:00:30;12.82;;;7.68;;
72575;SDS011;60613;48.658;2.328;2023-03-01T19:02:59;11.30;;;7.13;;
72575;SDS011;60613;48.658;2.328;2023-03-01T19:05:25;11.90;;;7.43;;
72575;SDS011;60613;48.658;2.328;2023-03-01T19:07:52;12.27;;;7.80;;
72575;SDS011;60613;48.658;2.328;2023-03-01T19:10:17;13.10;;;7.30;;
72575;SDS011;60613;48.658;2.328;2023-03-01T19:12:43;11.60;;;7.53;;
72575;SDS011;60613;48.658;2.328;2023-03-01T19:15:09;12.83;;;7.67;;
72575;SDS011;60613;48.658;2.328;2023-03-01T19:17:35;11.88;;;7.53;;
72575;SDS011;60613;48.658;2.328;2023-03-01T19:20:01;11.80;;;7.50;;
72575;SDS011;60613;48.658;2.328;2023-03-01T19:22:26;11.48;;;7.13;;
72575;SDS011;60613;48.658;2.328;2023-03-01T19:24:52;12.40;;;7.40;;
72575;SDS011;60613;48.658;2.328;2023-03-01T19:27:18;12.23;;;7.47;;
72575;SDS011;60613;48.658;2.328;2023-03-01T19:29:43;13.60;;;7.90;;
72575;SDS011;60613;48.658;2.328;2023-03-01T19:32:09;11.27;;;7.32;;
72575;SDS011;60613;48.658;2.328;2023-03-01T19:34:35;12.83;;;7.83;;
72575;SDS011;60613;48.658;2.328;2023-03-01T19:37:02;12.00;;;7.80;;
72575;SDS011;60613;48.658;2.328;2023-03-01T19:39:28;11.65;;;7.35;;
72575;SDS011;60613;48.658;2.328;2023-03-01T19:41:54;12.30;;;7.10;;
72575;SDS011;60613;48.658;2.328;2023-03-01T19:44:19;11.38;;;7.38;;
72575;SDS011;60613;48.658;2.328;2023-03-01T19:46:50;12.02;;;7.03;;
72575;SDS011;60613;48.658;2.328;2023-03-01T19:49:17;13.55;;;7.82;;
72575;SDS011;60613;48.658;2.328;2023-03-01T19:51:43;13.03;;;7.60;;
72575;SDS011;60613;48.658;2.328;2023-03-01T19:54:09;12.15;;;7.40;;
72575;SDS011;60613;48.658;2.328;2023-03-01T19:56:36;12.57;;;7.63;;
72575;SDS011;60613;48.658;2.328;2023-03-01T19:59:02;12.07;;;7.15;;
72575;SDS011;60613;48.658;2.328;2023-03-01T20:01:29;13.15;;;7.07;;
72575;SDS011;60613;48.658;2.328;2023-03-01T20:03:56;14.00;;;7.60;;
72575;SDS011;60613;48.658;2.328;2023-03-01T20:06:22;12.55;;;7.63;;
72575;SDS011;60613;48.658;2.328;2023-03-01T20:08:49;12.85;;;7.32;;
72575;SDS011;60613;48.658;2.328;2023-03-01T20:11:16;12.57;;;7.43;;
72575;SDS011;60613;48.658;2.328;2023-03-01T20:13:43;12.45;;;7.40;;
72575;SDS011;60613;48.658;2.328;2023-03-01T20:16:09;12.43;;;7.78;;
72575;SDS011;60613;48.658;2.328;2023-03-01T20:18:38;14.07;;;8.05;;
72575;SDS011;60613;48.658;2.328;2023-03-01T20:21:04;12.17;;;7.13;;
72575;SDS011;60613;48.658;2.328;2023-03-01T20:23:30;12.98;;;7.72;;
72575;SDS011;60613;48.658;2.328;2023-03-01T20:26:06;12.63;;;7.47;;
72575;SDS011;60613;48.658;2.328;2023-03-01T20:28:39;12.05;;;7.18;;
72575;SDS011;60613;48.658;2.328;2023-03-01T20:31:05;12.57;;;7.43;;
72575;SDS011;60613;48.658;2.328;2023-03-01T20:33:32;12.85;;;7.88;;
72575;SDS011;60613;48.658;2.328;2023-03-01T20:35:59;12.45;;;7.70;;
72575;SDS011;60613;48.658;2.328;2023-03-01T20:38:24;13.37;;;7.50;;
72575;SDS011;60613;48.658;2.328;2023-03-01T20:40:55;12.88;;;7.28;;
72575;SDS011;60613;48.658;2.328;2023-03-01T20:43:22;12.55;;;7.20;;
72575;SDS011;60613;48.658;2.328;2023-03-01T20:45:48;12.47;;;7.20;;
72575;SDS011;60613;48.658;2.328;2023-03-01T20:48:13;11.68;;;7.00;;
72575;SDS011;60613;48.658;2.328;2023-03-01T20:50:39;12.03;;;7.10;;
72575;SDS011;60613;48.658;2.328;2023-03-01T20:53:05;11.75;;;6.72;;
72575;SDS011;60613;48.658;2.328;2023-03-01T20:55:31;12.13;;;7.17;;
72575;SDS011;60613;48.658;2.328;2023-03-01T20:57:57;11.43;;;6.83;;
72575;SDS011;60613;48.658;2.328;2023-03-01T21:00:23;11.90;;;7.07;;
72575;SDS011;60613;48.658;2.328;2023-03-01T21:02:48;10.87;;;6.73;;
72575;SDS011;60613;48.658;2.328;2023-03-01T21:05:14;11.27;;;6.63;;
72575;SDS011;60613;48.658;2.328;2023-03-01T21:07:40;11.10;;;6.87;;
72575;SDS011;60613;48.658;2.328;2023-03-01T21:10:07;11.43;;;7.30;;
72575;SDS011;60613;48.658;2.328;2023-03-01T21:12:33;12.55;;;7.55;;
72575;SDS011;60613;48.658;2.328;2023-03-01T21:14:59;11.30;;;6.97;;
72575;SDS011;60613;48.658;2.328;2023-03-01T21:17:24;11.57;;;6.87;;
72575;SDS011;60613;48.658;2.328;2023-03-01T21:19:50;11.63;;;6.70;;
72575;SDS011;60613;48.658;2.328;2023-03-01T21:22:16;11.55;;;7.10;;
72575;SDS011;60613;48.658;2.328;2023-03-01T21:24:41;11.23;;;7.27;;
72575;SDS011;60613;48.658;2.328;2023-03-01T21:27:08;11.03;;;6.90;;
72575;SDS011;60613;48.658;2.328;2023-03-01T21:29:37;12.18;;;7.32;;
72575;SDS011;60613;48.658;2.328;2023-03-01T21:32:05;13.20;;;7.38;;
72575;SDS011;60613;48.658;2.328;2023-03-01T21:34:31;11.77;;;6.65;;
72575;SDS011;60613;48.658;2.328;2023-03-01T21:36:57;11.52;;;7.10;;
72575;SDS011;60613;48.658;2.328;2023-03-01T21:39:23;12.17;;;7.07;;
72575;SDS011;60613;48.658;2.328;2023-03-01T21:41:52;11.13;;;6.85;;
72575;SDS011;60613;48.658;2.328;2023-03-01T21:44:20;11.27;;;6.80;;
72575;SDS011;60613;48.658;2.328;2023-03-01T21:46:47;12.83;;;7.03;;
72575;SDS011;60613;48.658;2.328;2023-03-01T21:49:13;12.13;;;6.88;;
72575;SDS011;60613;48.658;2.328;2023-03-01T21:51:39;11.13;;;6.90;;
72575;SDS011;60613;48.658;2.328;2023-03-01T21:54:04;15.67;;;7.10;;
72575;SDS011;60613;48.658;2.328;2023-03-01T21:56:31;12.02;;;7.00;;
72575;SDS011;60613;48.658;2.328;2023-03-01T21:58:59;11.60;;;6.90;;
